Time;durP1;ratioP1;P1;durP2;ratioP2;P2;SDS_P1;SDS_P2;PMS_P1;PMS_P2;Temp;Humidity;BMP_temperature;BMP_pressure;BME280_temperature;BME280_humidity;BME280_pressure;Samples;Min_cycle;Max_cycle;Signal;HPM_P1;HPM_P2
2022/02/16 00:01:00;;;;;;;0.70;0.50;;;9.00;99.90;;;;;;5035655;28;20418;-69
2022/02/16 00:03:25;;;;;;;0.70;0.50;;;9.00;99.90;;;;;;5037296;28;20209;-68
2022/02/16 00:05:51;;;;;;;0.70;0.50;;;9.00;99.90;;;;;;5056504;28;20167;-69
2022/02/16 00:08:17;;;;;;;0.70;0.50;;;9.00;99.90;;;;;;5055349;28;20187;-69
2022/02/16 00:10:42;;;;;;;0.70;0.50;;;9.10;99.90;;;;;;5050239;28;20461;-69
2022/02/16 00:13:08;;;;;;;0.70;0.50;;;9.00;99.90;;;;;;5041501;28;20182;-69
2022/02/16 00:15:34;;;;;;;0.70;0.50;;;9.00;99.90;;;;;;5027548;28;20189;-69
2022/02/16 00:17:59;;;;;;;0.70;0.50;;;9.00;99.90;;;;;;5032035;28;20438;-69
2022/02/16 00:20:25;;;;;;;0.70;0.50;;;9.00;99.90;;;;;;5039366;28;20210;-69
2022/02/16 00:22:50;;;;;;;0.70;0.50;;;9.10;99.90;;;;;;5032745;28;20706;-69
2022/02/16 00:25:16;;;;;;;0.70;0.50;;;9.10;99.90;;;;;;5035384;28;20171;-69
2022/02/16 00:27:41;;;;;;;0.70;0.50;;;9.00;99.90;;;;;;5030294;28;20172;-69
2022/02/16 00:30:08;;;;;;;0.70;0.50;;;9.10;99.90;;;;;;5021443;28;20191;-69
2022/02/16 00:32:33;;;;;;;0.70;0.50;;;9.10;99.90;;;;;;5035295;28;20617;-69
2022/02/16 00:34:59;;;;;;;0.70;0.50;;;9.10;99.90;;;;;;5034221;28;20467;-69
2022/02/16 00:37:24;;;;;;;0.70;0.50;;;9.10;99.90;;;;;;5034761;28;20703;-69
2022/02/16 00:39:50;;;;;;;0.80;0.70;;;9.10;99.90;;;;;;5035134;28;20544;-69
2022/02/16 00:42:15;;;;;;;0.70;0.50;;;9.10;99.90;;;;;;5034009;28;20637;-69
2022/02/16 00:44:41;;;;;;;0.70;0.50;;;9.10;99.90;;;;;;5029051;28;20254;-69
2022/02/16 00:47:07;;;;;;;0.70;0.50;;;9.20;99.90;;;;;;5036677;28;20644;-69
2022/02/16 00:49:32;;;;;;;0.70;0.50;;;9.20;99.90;;;;;;5034967;28;20175;-69
2022/02/16 00:51:58;;;;;;;0.80;0.60;;;9.20;99.90;;;;;;5034605;28;20180;-69
2022/02/16 00:54:23;;;;;;;0.70;0.50;;;9.20;99.90;;;;;;5033184;28;20195;-67
2022/02/16 00:56:49;;;;;;;0.70;0.50;;;9.20;99.90;;;;;;5037361;28;20327;-68
2022/02/16 00:59:14;;;;;;;0.70;0.50;;;9.20;99.90;;;;;;5037061;28;20552;-68
2022/02/16 01:01:40;;;;;;;0.70;0.50;;;9.20;99.90;;;;;;5036459;28;20246;-69
2022/02/16 01:04:05;;;;;;;0.70;0.50;;;9.20;99.90;;;;;;5032346;28;20171;-69
2022/02/16 01:06:31;;;;;;;0.70;0.50;;;9.20;99.90;;;;;;5034589;28;20180;-69
2022/02/16 01:08:56;;;;;;;0.70;0.50;;;9.30;99.90;;;;;;5028829;28;20721;-69
2022/02/16 01:11:22;;;;;;;0.80;0.60;;;9.30;99.90;;;;;;5048964;28;20191;-69
2022/02/16 01:13:48;;;;;;;0.70;0.50;;;9.40;99.90;;;;;;5049524;28;20563;-69
2022/02/16 01:16:14;;;;;;;0.70;0.43;;;9.30;99.90;;;;;;5054360;28;20706;-69
2022/02/16 01:18:40;;;;;;;0.70;0.50;;;9.30;99.90;;;;;;5053938;28;20530;-67
2022/02/16 01:21:05;;;;;;;0.70;0.50;;;9.40;99.90;;;;;;5053839;28;20183;-68
2022/02/16 01:23:31;;;;;;;0.70;0.47;;;9.40;99.90;;;;;;5053878;28;20175;-68
2022/02/16 01:25:56;;;;;;;0.70;0.50;;;9.40;99.90;;;;;;5031192;28;20591;-68
2022/02/16 01:28:22;;;;;;;0.70;0.50;;;9.40;99.90;;;;;;5013757;28;20664;-68
2022/02/16 01:30:47;;;;;;;0.70;0.50;;;9.40;99.90;;;;;;5013951;28;20188;-68
2022/02/16 01:33:13;;;;;;;0.70;0.50;;;9.40;99.90;;;;;;5013937;28;20273;-68
2022/02/16 01:35:38;;;;;;;0.70;0.50;;;9.40;99.90;;;;;;5013885;28;20168;-68
2022/02/16 01:38:04;;;;;;;0.70;0.50;;;9.40;99.90;;;;;;5013576;28;20196;-68
2022/02/16 01:40:30;;;;;;;0.70;0.50;;;9.50;99.90;;;;;;5041740;28;20282;-67
2022/02/16 01:42:55;;;;;;;0.70;0.50;;;9.50;99.90;;;;;;5048212;28;20167;-67
2022/02/16 01:45:26;;;;;;;0.70;0.50;;;9.50;99.90;;;;;;5033384;28;20250;-67
2022/02/16 01:47:52;;;;;;;0.80;0.60;;;9.50;99.90;;;;;;5033236;28;20187;-68
2022/02/16 01:50:18;;;;;;;0.70;0.50;;;9.50;99.90;;;;;;5033356;28;20435;-67
2022/02/16 01:52:43;;;;;;;0.70;0.50;;;9.50;99.90;;;;;;5048841;28;20419;-67
2022/02/16 01:55:11;;;;;;;0.70;0.50;;;9.60;99.90;;;;;;5033203;28;20183;-68
2022/02/16 01:57:38;;;;;;;0.70;0.50;;;9.60;99.90;;;;;;5033020;28;20215;-69
2022/02/16 02:00:05;;;;;;;0.70;0.50;;;9.60;99.90;;;;;;5033481;28;20422;-69
2022/02/16 02:02:30;;;;;;;0.70;0.50;;;9.60;99.90;;;;;;5033200;28;20405;-68
2022/02/16 02:04:56;;;;;;;0.70;0.40;;;9.60;99.90;;;;;;5034149;28;20497;-68
2022/02/16 02:07:22;;;;;;;0.70;0.50;;;9.60;99.90;;;;;;5032765;28;20237;-68
2022/02/16 02:09:48;;;;;;;0.70;0.50;;;9.60;99.90;;;;;;5033025;28;20443;-68
2022/02/16 02:12:14;;;;;;;0.70;0.50;;;9.60;99.90;;;;;;5032958;28;20326;-68
2022/02/16 02:14:40;;;;;;;0.70;0.50;;;9.60;99.90;;;;;;5033156;28;20398;-68
2022/02/16 02:17:06;;;;;;;0.70;0.50;;;9.60;99.90;;;;;;5032568;28;20454;-68
2022/02/16 02:19:31;;;;;;;0.70;0.50;;;9.60;99.90;;;;;;5043304;28;20544;-68
2022/02/16 02:21:57;;;;;;;0.70;0.50;;;9.70;99.90;;;;;;5052713;28;20505;-68
2022/02/16 02:24:22;;;;;;;0.70;0.50;;;9.70;99.90;;;;;;5051376;28;20632;-68
2022/02/16 02:26:48;;;;;;;0.70;0.50;;;9.70;99.90;;;;;;5052364;28;20221;-68
2022/02/16 02:29:15;;;;;;;0.70;0.40;;;9.60;99.90;;;;;;5052560;28;20643;-68
2022/02/16 02:31:40;;;;;;;0.70;0.50;;;9.70;99.90;;;;;;5052296;28;20195;-68
2022/02/16 02:34:06;;;;;;;0.70;0.40;;;9.70;99.90;;;;;;5032872;28;20449;-68
2022/02/16 02:36:32;;;;;;;0.70;0.50;;;9.60;99.90;;;;;;5031252;28;20196;-68
2022/02/16 02:38:57;;;;;;;0.70;0.50;;;9.70;99.90;;;;;;5040009;28;20248;-68
2022/02/16 02:41:24;;;;;;;0.70;0.50;;;9.70;99.90;;;;;;5052231;28;20422;-68
2022/02/16 02:43:50;;;;;;;0.70;0.50;;;9.70;99.90;;;;;;5052300;28;20167;-68
2022/02/16 02:46:17;;;;;;;0.70;0.50;;;9.70;99.90;;;;;;5050601;28;20855;-68
2022/02/16 02:48:43;;;;;;;0.70;0.50;;;9.70;99.90;;;;;;5052175;28;20409;-68
2022/02/16 02:51:10;;;;;;;0.70;0.50;;;9.60;99.90;;;;;;5052154;28;20424;-68
2022/02/16 02:53:37;;;;;;;0.70;0.53;;;9.60;99.90;;;;;;5052130;28;20923;-68
2022/02/16 02:56:03;;;;;;;0.70;0.50;;;9.60;99.90;;;;;;5052020;28;20495;-68
2022/02/16 02:58:29;;;;;;;0.70;0.50;;;9.60;99.90;;;;;;5045388;28;20419;-68
2022/02/16 03:00:55;;;;;;;0.70;0.50;;;9.60;99.90;;;;;;5032293;28;20977;-68
2022/02/16 03:03:20;;;;;;;0.70;0.50;;;9.60;99.90;;;;;;5032131;28;20179;-68
2022/02/16 03:05:46;;;;;;;0.70;0.50;;;9.60;99.90;;;;;;5030859;28;20167;-68
2022/02/16 03:08:11;;;;;;;0.70;0.50;;;9.60;99.90;;;;;;5031881;28;20255;-68
2022/02/16 03:10:37;;;;;;;0.70;0.50;;;9.60;99.90;;;;;;5032038;28;20179;-68
2022/02/16 03:13:02;;;;;;;0.70;0.50;;;9.60;99.90;;;;;;5046756;28;20171;-69
2022/02/16 03:15:28;;;;;;;0.70;0.50;;;9.60;99.90;;;;;;5051816;28;20162;-69
2022/02/16 03:17:53;;;;;;;0.70;0.50;;;9.60;99.90;;;;;;5050410;28;20198;-68
2022/02/16 03:20:19;;;;;;;0.70;0.40;;;9.60;99.90;;;;;;5051260;28;20270;-67
2022/02/16 03:22:44;;;;;;;0.70;0.50;;;9.60;99.90;;;;;;5042911;28;20535;-68
2022/02/16 03:25:11;;;;;;;0.70;0.43;;;9.60;99.90;;;;;;5035275;28;20254;-67
2022/02/16 03:27:37;;;;;;;0.70;0.50;;;9.60;99.90;;;;;;5051624;28;20658;-68
2022/02/16 03:30:07;;;;;;;0.70;0.47;;;9.60;99.90;;;;;;5051786;28;20426;-68
2022/02/16 03:32:32;;;;;;;0.70;0.50;;;9.60;99.90;;;;;;5051748;28;20393;-68
2022/02/16 03:34:58;;;;;;;0.70;0.50;;;9.60;99.90;;;;;;5051706;28;20411;-68
2022/02/16 03:37:23;;;;;;;0.70;0.50;;;9.70;99.90;;;;;;5051423;28;20290;-68
2022/02/16 03:39:49;;;;;;;0.70;0.50;;;9.70;99.90;;;;;;5034255;28;20179;-68
2022/02/16 03:42:14;;;;;;;0.70;0.50;;;9.70;99.90;;;;;;5031749;28;20172;-68
2022/02/16 03:44:41;;;;;;;0.70;0.50;;;9.70;99.90;;;;;;5031657;28;20201;-68
2022/02/16 03:47:07;;;;;;;0.70;0.50;;;9.70;99.90;;;;;;5031420;28;20247;-68
2022/02/16 03:49:33;;;;;;;0.70;0.50;;;9.70;99.90;;;;;;5030357;28;20452;-68
2022/02/16 03:51:59;;;;;;;0.70;0.40;;;9.80;99.90;;;;;;5037527;28;20421;-68
2022/02/16 03:54:24;;;;;;;0.70;0.50;;;9.80;99.90;;;;;;5051556;28;20193;-68
2022/02/16 03:56:51;;;;;;;0.70;0.50;;;9.80;99.90;;;;;;5050136;28;20453;-68
2022/02/16 03:59:17;;;;;;;0.70;0.50;;;9.80;99.90;;;;;;5051448;28;20209;-68
2022/02/16 04:01:42;;;;;;;0.70;0.50;;;9.90;99.90;;;;;;5051452;28;20453;-68
2022/02/16 04:04:08;;;;;;;0.70;0.50;;;9.90;99.90;;;;;;5051461;28;20811;-68
2022/02/16 04:06:33;;;;;;;0.70;0.50;;;9.90;99.90;;;;;;5036277;28;20218;-68
2022/02/16 04:08:59;;;;;;;0.70;0.50;;;10.00;99.90;;;;;;5031262;28;20248;-68
2022/02/16 04:11:26;;;;;;;0.70;0.50;;;10.00;99.90;;;;;;5031560;28;20344;-68
2022/02/16 04:13:55;;;;;;;1.13;0.73;;;10.00;99.90;;;;;;5031380;28;20171;-68
2022/02/16 04:16:24;;;;;;;0.70;0.50;;;10.00;99.90;;;;;;5031349;28;20503;-68
2022/02/16 04:18:50;;;;;;;0.70;0.50;;;10.00;99.90;;;;;;5036032;28;20448;-68
2022/02/16 04:21:15;;;;;;;0.70;0.50;;;10.00;99.90;;;;;;5051239;28;20417;-68
2022/02/16 04:23:42;;;;;;;0.70;0.47;;;10.00;99.90;;;;;;5051281;28;20198;-68
2022/02/16 04:26:08;;;;;;;0.70;0.50;;;10.10;99.90;;;;;;5051336;28;20187;-68
2022/02/16 04:28:33;;;;;;;0.70;0.50;;;10.10;99.90;;;;;;5049667;28;20510;-68
2022/02/16 04:30:59;;;;;;;0.70;0.50;;;10.20;99.90;;;;;;5046908;28;20191;-68
2022/02/16 04:33:24;;;;;;;0.70;0.50;;;10.10;99.90;;;;;;5034856;28;20221;-68
2022/02/16 04:35:50;;;;;;;0.70;0.50;;;10.10;99.90;;;;;;5034804;28;20738;-68
2022/02/16 04:38:16;;;;;;;0.70;0.50;;;10.10;99.90;;;;;;5034484;28;20250;-68
2022/02/16 04:40:42;;;;;;;0.70;0.50;;;10.10;99.90;;;;;;5034917;28;20188;-68
2022/02/16 04:43:08;;;;;;;0.70;0.50;;;10.10;99.90;;;;;;5034670;28;20199;-68
2022/02/16 04:45:34;;;;;;;0.70;0.50;;;10.10;99.90;;;;;;5037205;28;20415;-68
2022/02/16 04:48:00;;;;;;;0.70;0.50;;;10.20;99.90;;;;;;5033023;28;20410;-68
2022/02/16 04:50:26;;;;;;;0.70;0.50;;;10.20;99.90;;;;;;5034427;28;20460;-68
2022/02/16 04:52:55;;;;;;;0.70;0.50;;;10.20;99.90;;;;;;5034354;28;20451;-68
2022/02/16 04:55:23;;;;;;;0.70;0.50;;;10.10;99.90;;;;;;5034338;28;20426;-68
2022/02/16 04:57:49;;;;;;;0.70;0.50;;;10.10;99.90;;;;;;5034195;28;20462;-68
2022/02/16 05:00:15;;;;;;;0.70;0.50;;;10.10;99.90;;;;;;5053916;28;20465;-68
2022/02/16 05:02:41;;;;;;;0.70;0.50;;;10.10;99.90;;;;;;5054189;28;20433;-69
2022/02/16 05:05:07;;;;;;;0.70;0.50;;;10.10;99.90;;;;;;5053824;28;20456;-68
2022/02/16 05:07:33;;;;;;;0.70;0.50;;;10.10;99.90;;;;;;5052392;28;21030;-68
2022/02/16 05:09:58;;;;;;;0.70;0.50;;;10.10;99.90;;;;;;5052895;28;20512;-68
2022/02/16 05:12:25;;;;;;;0.70;0.50;;;10.10;99.90;;;;;;5044034;28;20193;-67
2022/02/16 05:14:50;;;;;;;0.70;0.50;;;10.10;99.90;;;;;;5034155;28;20260;-68
2022/02/16 05:17:16;;;;;;;0.97;0.83;;;10.10;99.90;;;;;;5033831;28;20861;-68
2022/02/16 05:19:42;;;;;;;0.70;0.50;;;10.10;99.90;;;;;;5033902;28;20171;-68
2022/02/16 05:22:07;;;;;;;0.70;0.47;;;10.10;99.90;;;;;;5034021;28;20167;-68
2022/02/16 05:24:33;;;;;;;0.70;0.50;;;10.10;99.90;;;;;;5035128;28;20456;-68
2022/02/16 05:26:59;;;;;;;0.70;0.50;;;10.20;99.90;;;;;;5033809;28;20164;-68
2022/02/16 05:29:24;;;;;;;0.70;0.50;;;10.10;99.90;;;;;;5033812;28;20168;-68
2022/02/16 05:31:50;;;;;;;0.70;0.43;;;10.20;99.90;;;;;;5044623;28;20210;-68
2022/02/16 05:34:16;;;;;;;0.70;0.50;;;10.20;99.90;;;;;;5053596;28;20173;-68
2022/02/16 05:36:43;;;;;;;0.70;0.50;;;10.20;99.90;;;;;;5053723;28;20281;-68
2022/02/16 05:39:08;;;;;;;0.70;0.50;;;10.20;99.90;;;;;;5037635;28;20453;-69
2022/02/16 05:41:34;;;;;;;0.70;0.50;;;10.20;99.90;;;;;;5033437;28;20453;-68
2022/02/16 05:43:59;;;;;;;0.70;0.50;;;10.20;99.90;;;;;;5037673;28;20524;-68
2022/02/16 05:46:25;;;;;;;0.70;0.50;;;10.30;99.90;;;;;;5053462;28;20163;-69
2022/02/16 05:48:51;;;;;;;0.70;0.50;;;10.30;99.90;;;;;;5053088;28;20260;-68
2022/02/16 05:51:16;;;;;;;0.70;0.50;;;10.30;99.90;;;;;;5048432;28;20199;-68
2022/02/16 05:53:42;;;;;;;0.70;0.50;;;10.40;99.90;;;;;;5033260;28;20509;-68
2022/02/16 05:56:08;;;;;;;0.70;0.50;;;10.40;99.90;;;;;;5033237;28;20197;-68
2022/02/16 05:58:34;;;;;;;0.70;0.50;;;10.40;99.90;;;;;;5033032;28;20414;-68
2022/02/16 06:01:03;;;;;;;0.70;0.50;;;10.40;99.90;;;;;;5033053;28;20599;-68
2022/02/16 06:03:28;;;;;;;0.70;0.50;;;10.40;99.90;;;;;;5031850;28;20206;-69
2022/02/16 06:05:54;;;;;;;0.70;0.50;;;10.40;99.90;;;;;;5047352;28;20445;-68
2022/02/16 06:08:20;;;;;;;0.70;0.50;;;10.40;99.90;;;;;;5051422;28;20568;-68
2022/02/16 06:10:45;;;;;;;0.70;0.40;;;10.40;99.90;;;;;;5052913;28;20197;-68
2022/02/16 06:13:13;;;;;;;0.70;0.50;;;10.50;99.90;;;;;;5052945;28;20174;-68
2022/02/16 06:15:39;;;;;;;0.70;0.50;;;10.40;99.90;;;;;;5052843;28;20163;-68
2022/02/16 06:18:05;;;;;;;0.70;0.50;;;10.40;99.90;;;;;;5048584;28;20465;-68
2022/02/16 06:20:30;;;;;;;0.70;0.50;;;10.40;99.90;;;;;;5032910;28;20221;-68
2022/02/16 06:22:56;;;;;;;0.70;0.50;;;10.40;99.90;;;;;;5031546;28;20198;-68
2022/02/16 06:25:23;;;;;;;0.70;0.50;;;10.50;99.90;;;;;;5032707;28;20524;-68
2022/02/16 06:27:48;;;;;;;0.70;0.50;;;10.50;99.90;;;;;;5032400;28;20416;-68
2022/02/16 06:30:14;;;;;;;0.70;0.50;;;10.50;99.90;;;;;;5032730;28;20923;-68
2022/02/16 06:32:40;;;;;;;0.70;0.50;;;10.60;99.90;;;;;;5045424;28;20225;-68
2022/02/16 06:35:06;;;;;;;0.70;0.50;;;10.50;99.90;;;;;;5052553;28;20171;-68
2022/02/16 06:37:31;;;;;;;0.70;0.50;;;10.60;99.90;;;;;;5050858;28;20194;-68
2022/02/16 06:39:57;;;;;;;0.70;0.50;;;10.50;99.90;;;;;;5052202;28;20438;-68
2022/02/16 06:42:23;;;;;;;0.70;0.50;;;10.60;99.90;;;;;;5052483;28;20219;-68
2022/02/16 06:44:48;;;;;;;0.70;0.50;;;10.50;99.90;;;;;;5043938;28;20190;-68
2022/02/16 06:47:14;;;;;;;0.70;0.50;;;10.50;99.90;;;;;;5032040;28;20178;-68
2022/02/16 06:49:39;;;;;;;0.70;0.50;;;10.60;99.90;;;;;;5032312;28;20171;-68
2022/02/16 06:52:05;;;;;;;0.70;0.43;;;10.60;99.90;;;;;;5032608;28;20167;-68
2022/02/16 06:54:31;;;;;;;0.70;0.50;;;10.70;99.90;;;;;;5031447;28;20187;-68
2022/02/16 06:56:58;;;;;;;0.70;0.50;;;10.70;99.90;;;;;;5032272;28;20187;-68
2022/02/16 06:59:23;;;;;;;0.70;0.50;;;10.70;99.90;;;;;;5049473;28;20842;-67
2022/02/16 07:01:49;;;;;;;0.70;0.50;;;10.70;99.90;;;;;;5052001;28;20417;-68
2022/02/16 07:04:15;;;;;;;4.50;1.27;;;10.70;99.90;;;;;;5052110;28;20245;-68
2022/02/16 07:06:40;;;;;;;0.70;0.50;;;10.70;99.90;;;;;;5051699;28;20182;-68
2022/02/16 07:09:06;;;;;;;0.70;0.50;;;10.80;99.90;;;;;;5039620;28;20548;-68
2022/02/16 07:11:31;;;;;;;0.70;0.50;;;10.80;99.90;;;;;;5031954;28;20718;-68
2022/02/16 07:13:57;;;;;;;0.70;0.50;;;10.80;99.90;;;;;;5048684;28;20669;-68
2022/02/16 07:16:22;;;;;;;0.70;0.50;;;10.80;99.90;;;;;;5038921;28;20702;-68
2022/02/16 07:18:48;;;;;;;0.70;0.50;;;10.80;99.90;;;;;;5036237;28;20167;-68
2022/02/16 07:21:13;;;;;;;0.70;0.50;;;10.80;99.90;;;;;;5040577;28;20198;-67
2022/02/16 07:23:39;;;;;;;0.70;0.47;;;10.90;99.90;;;;;;5042776;28;20186;-68
2022/02/16 07:26:09;;;;;;;0.70;0.50;;;10.90;99.90;;;;;;5032009;28;20167;-68
2022/02/16 07:28:35;;;;;;;0.70;0.50;;;10.80;99.90;;;;;;5031673;28;20167;-68
2022/02/16 07:31:01;;;;;;;0.70;0.50;;;10.80;99.90;;;;;;5030526;28;20439;-68
2022/02/16 07:33:26;;;;;;;0.70;0.50;;;10.90;99.90;;;;;;5045245;28;20179;-68
2022/02/16 07:35:52;;;;;;;0.70;0.50;;;10.90;99.90;;;;;;5051319;28;20163;-68
2022/02/16 07:38:18;;;;;;;0.70;0.50;;;11.00;99.90;;;;;;5051422;28;20523;-68
2022/02/16 07:40:43;;;;;;;0.70;0.50;;;10.90;99.90;;;;;;5026906;28;20202;-68
2022/02/16 07:43:09;;;;;;;1.63;0.80;;;11.00;99.90;;;;;;5016151;28;20266;-68
2022/02/16 07:45:35;;;;;;;0.70;0.50;;;11.10;99.90;;;;;;5031116;28;20194;-68
2022/02/16 07:48:00;;;;;;;0.70;0.50;;;11.10;99.90;;;;;;5031335;28;20167;-67
2022/02/16 07:50:29;;;;;;;0.70;0.50;;;11.10;99.90;;;;;;5031576;28;20272;-68
2022/02/16 07:52:58;;;;;;;0.70;0.50;;;11.10;99.90;;;;;;5031629;28;20175;-68
2022/02/16 07:55:26;;;;;;;0.70;0.50;;;11.20;99.90;;;;;;5031154;28;20517;-68
2022/02/16 07:57:52;;;;;;;0.70;0.50;;;11.20;99.90;;;;;;5011625;28;20525;-68
2022/02/16 08:00:18;;;;;;;0.70;0.50;;;11.20;99.90;;;;;;5028007;28;20452;-68
2022/02/16 08:02:43;;;;;;;0.70;0.50;;;11.30;99.90;;;;;;5031471;28;20485;-68
2022/02/16 08:05:09;;;;;;;0.70;0.50;;;11.30;99.90;;;;;;5028933;28;20263;-68
2022/02/16 08:07:34;;;;;;;0.70;0.50;;;11.40;99.90;;;;;;5034719;28;20202;-68
2022/02/16 08:10:00;;;;;;;0.70;0.60;;;11.40;99.90;;;;;;5026801;28;20195;-68
2022/02/16 08:12:25;;;;;;;0.70;0.50;;;11.40;99.90;;;;;;5033433;28;20241;-68
2022/02/16 08:14:51;;;;;;;0.70;0.50;;;11.40;99.90;;;;;;5034630;28;20187;-68
2022/02/16 08:17:16;;;;;;;0.70;0.50;;;11.50;99.90;;;;;;5040202;28;20599;-68
2022/02/16 08:19:42;;;;;;;0.70;0.50;;;11.60;99.90;;;;;;5040674;28;20168;-68
2022/02/16 08:22:07;;;;;;;0.70;0.50;;;11.60;99.90;;;;;;5034241;28;20178;-69
2022/02/16 08:24:33;;;;;;;0.70;0.50;;;11.70;99.90;;;;;;5046618;28;20171;-68
2022/02/16 08:26:59;;;;;;;0.70;0.50;;;11.70;99.90;;;;;;5053421;28;20182;-68
2022/02/16 08:29:25;;;;;;;0.70;0.50;;;11.80;99.90;;;;;;5054539;28;20163;-67
2022/02/16 08:31:51;;;;;;;0.70;0.50;;;11.90;99.90;;;;;;5035512;28;20499;-68
2022/02/16 08:34:17;;;;;;;0.70;0.50;;;11.90;99.90;;;;;;5035796;28;20171;-68
2022/02/16 08:36:43;;;;;;;0.70;0.50;;;12.00;99.90;;;;;;5036444;28;20453;-68
2022/02/16 08:39:09;;;;;;;0.70;0.50;;;11.90;99.90;;;;;;5052313;28;20511;-67
2022/02/16 08:41:34;;;;;;;0.70;0.50;;;12.00;99.90;;;;;;5052668;28;20191;-67
2022/02/16 08:44:00;;;;;;;0.70;0.50;;;12.00;99.90;;;;;;5036634;28;20425;-67
2022/02/16 08:46:26;;;;;;;0.70;0.50;;;12.10;99.90;;;;;;5035343;28;20715;-69
2022/02/16 08:48:51;;;;;;;0.70;0.50;;;12.20;99.90;;;;;;5033797;28;20683;-69
2022/02/16 08:51:17;;;;;;;0.70;0.50;;;12.30;99.90;;;;;;5034636;28;20245;-68
2022/02/16 08:53:42;;;;;;;0.70;0.50;;;12.40;99.90;;;;;;5035345;28;20241;-69
2022/02/16 08:56:08;;;;;;;0.70;0.50;;;12.40;99.90;;;;;;5034760;28;20578;-68
2022/02/16 08:58:34;;;;;;;0.70;0.50;;;12.50;99.90;;;;;;5034663;28;20182;-69
2022/02/16 09:01:00;;;;;;;0.70;0.50;;;12.60;99.90;;;;;;5033566;28;20684;-69
2022/02/16 09:03:27;;;;;;;0.70;0.50;;;12.70;99.90;;;;;;5034698;28;20528;-68
2022/02/16 09:05:53;;;;;;;0.70;0.50;;;12.70;99.90;;;;;;5038008;28;20174;-68
2022/02/16 09:08:19;;;;;;;0.70;0.50;;;12.80;99.90;;;;;;5036487;28;21110;-68
2022/02/16 09:10:45;;;;;;;0.70;0.50;;;12.90;99.90;;;;;;5053505;28;20441;-68
2022/02/16 09:13:11;;;;;;;0.70;0.50;;;12.90;99.90;;;;;;5045918;28;20428;-67
2022/02/16 09:15:36;;;;;;;0.70;0.50;;;13.00;99.90;;;;;;5035021;28;20645;-68
2022/02/16 09:18:05;;;;;;;0.93;0.93;;;13.00;99.90;;;;;;5039934;28;20289;-68
2022/02/16 09:20:32;;;;;;;0.70;0.50;;;13.10;99.90;;;;;;5052236;28;20195;-68
2022/02/16 09:22:58;;;;;;;0.70;0.50;;;13.10;99.90;;;;;;5047980;28;20409;-69
2022/02/16 09:25:23;;;;;;;0.70;0.50;;;13.20;99.90;;;;;;5033752;28;20442;-69
2022/02/16 09:27:49;;;;;;;0.70;0.50;;;13.20;99.90;;;;;;5035252;28;20484;-69
2022/02/16 09:30:15;;;;;;;0.70;0.50;;;13.30;99.90;;;;;;5034690;28;20245;-69
2022/02/16 09:32:41;;;;;;;0.70;0.50;;;13.30;99.90;;;;;;5038053;28;20179;-70
2022/02/16 09:35:07;;;;;;;0.70;0.50;;;13.30;99.90;;;;;;5053437;28;20575;-68
2022/02/16 09:37:33;;;;;;;0.70;0.50;;;13.30;99.90;;;;;;5052357;28;20449;-69
2022/02/16 09:39:58;;;;;;;0.70;0.50;;;13.40;99.90;;;;;;5049870;28;20449;-68
2022/02/16 09:42:25;;;;;;;0.70;0.50;;;13.50;99.90;;;;;;5041065;28;20707;-68
2022/02/16 09:44:58;;;;;;;0.70;0.50;;;13.50;99.90;;;;;;5033398;28;20171;-68
2022/02/16 09:47:24;;;;;;;0.70;0.50;;;13.50;99.90;;;;;;5049867;28;21109;-68
2022/02/16 09:49:51;;;;;;;0.70;0.50;;;13.60;99.90;;;;;;5034763;28;20438;-68
2022/02/16 09:52:17;;;;;;;0.70;0.50;;;13.60;99.90;;;;;;5033308;28;20434;-67
2022/02/16 09:54:43;;;;;;;0.70;0.43;;;13.60;99.90;;;;;;5043028;28;20477;-68
2022/02/16 09:57:09;;;;;;;0.70;0.50;;;13.60;99.90;;;;;;5054261;28;20453;-68
2022/02/16 09:59:35;;;;;;;0.70;0.50;;;13.70;99.90;;;;;;5046273;28;20178;-68
2022/02/16 10:02:08;;;;;;;0.70;0.50;;;13.70;99.90;;;;;;5042219;28;20425;-69
2022/02/16 10:04:36;;;;;;;0.70;0.50;;;13.60;99.90;;;;;;5034416;28;20430;-67
2022/02/16 10:07:22;;;;;;;0.70;0.50;;;13.70;99.90;;;;;;5048444;28;20432;-68
2022/02/16 10:09:48;;;;;;;0.70;0.50;;;13.80;99.90;;;;;;5050671;28;20436;-68
2022/02/16 10:12:13;;;;;;;0.70;0.50;;;13.80;99.90;;;;;;5052984;28;20436;-69
2022/02/16 10:14:40;;;;;;;0.80;0.60;;;13.90;99.90;;;;;;5034316;28;20505;-68
2022/02/16 10:17:24;;;;;;;0.70;0.50;;;13.90;99.90;;;;;;5034476;28;20613;-68
2022/02/16 10:19:57;;;;;;;0.70;0.50;;;14.00;99.90;;;;;;5036544;28;20425;-68
2022/02/16 10:22:38;;;;;;;0.70;0.50;;;14.20;99.90;;;;;;5052451;28;20405;-68
2022/02/16 10:25:19;;;;;;;0.70;0.50;;;14.30;99.90;;;;;;5022728;28;20842;-69
2022/02/16 10:28:21;;;;;;;0.70;0.50;;;14.80;99.90;;;;;;5042754;28;20440;-69
2022/02/16 10:31:02;;;;;;;0.80;0.60;;;15.60;99.90;;;;;;5030540;28;20993;-69
2022/02/16 10:33:33;;;;;;;0.70;0.50;;;16.70;99.90;;;;;;5041128;28;20499;-68
2022/02/16 10:36:01;;;;;;;0.70;0.50;;;17.60;99.90;;;;;;5052483;28;20402;-68
2022/02/16 10:38:27;;;;;;;0.70;0.50;;;18.10;99.90;;;;;;5045240;28;20426;-68
2022/02/16 10:41:07;;;;;;;0.70;0.50;;;18.20;99.90;;;;;;5036725;28;20453;-68
2022/02/16 10:43:35;;;;;;;0.70;0.50;;;18.20;99.90;;;;;;5043258;28;20203;-68
2022/02/16 10:46:01;;;;;;;0.70;0.50;;;18.10;99.90;;;;;;5036018;28;20849;-68
2022/02/16 10:48:26;;;;;;;0.70;0.50;;;18.10;99.90;;;;;;5050094;28;20453;-68
2022/02/16 10:50:52;;;;;;;0.70;0.50;;;18.20;99.90;;;;;;5051521;28;20230;-68
2022/02/16 10:53:27;;;;;;;0.70;0.50;;;18.20;99.90;;;;;;5045888;28;20191;-68
2022/02/16 10:55:53;;;;;;;0.70;0.50;;;18.00;99.90;;;;;;5031709;28;20217;-68
2022/02/16 10:58:24;;;;;;;0.70;0.50;;;18.00;99.90;;;;;;5027889;28;20423;-69
2022/02/16 11:00:53;;;;;;;0.70;0.50;;;17.80;99.90;;;;;;5027832;28;20454;-69
2022/02/16 11:03:22;;;;;;;0.70;0.50;;;17.90;99.90;;;;;;5017052;28;20649;-68
2022/02/16 11:05:49;;;;;;;1.00;0.90;;;18.00;99.90;;;;;;5031572;28;20977;-69
2022/02/16 11:08:15;;;;;;;0.70;0.50;;;18.10;99.90;;;;;;5048114;28;20425;-70
2022/02/16 11:10:45;;;;;;;0.70;0.50;;;18.10;99.90;;;;;;5032768;28;20446;-69
2022/02/16 11:13:14;;;;;;;0.70;0.50;;;18.00;99.90;;;;;;5032705;28;20434;-69
2022/02/16 11:15:40;;;;;;;0.90;0.60;;;18.00;99.90;;;;;;5031775;28;20880;-69
2022/02/16 11:18:14;;;;;;;0.70;0.50;;;17.80;99.90;;;;;;5031457;28;20508;-69
2022/02/16 11:20:40;;;;;;;0.70;0.50;;;17.70;99.90;;;;;;5039234;28;20433;-69
2022/02/16 11:23:06;;;;;;;0.80;0.70;;;17.50;99.90;;;;;;5035155;28;20472;-69
2022/02/16 11:25:35;;;;;;;0.70;0.50;;;17.30;99.90;;;;;;5031969;28;20402;-68
2022/02/16 11:28:03;;;;;;;0.70;0.50;;;17.10;99.90;;;;;;5032276;28;20175;-68
2022/02/16 11:30:36;;;;;;;1.20;0.60;;;17.00;99.90;;;;;;5034449;28;20442;-68
2022/02/16 11:33:21;;;;;;;0.70;0.50;;;16.80;99.90;;;;;;5034200;28;20975;-68
2022/02/16 11:35:58;;;;;;;0.70;0.50;;;16.70;99.90;;;;;;5045957;28;20422;-68
2022/02/16 11:38:38;;;;;;;0.70;0.50;;;16.60;99.90;;;;;;5043413;28;20429;-68
2022/02/16 11:41:21;;;;;;;0.70;0.50;;;16.50;99.90;;;;;;5023858;28;20462;-68
2022/02/16 11:43:57;;;;;;;1.03;0.83;;;16.40;99.90;;;;;;5018011;28;20509;-68
2022/02/16 11:46:43;;;;;;;0.70;0.50;;;16.30;99.90;;;;;;5033832;28;20421;-68
2022/02/16 11:49:27;;;;;;;0.70;0.50;;;16.40;99.90;;;;;;5035139;28;20417;-68
2022/02/16 11:51:54;;;;;;;0.70;0.50;;;16.30;99.90;;;;;;5032918;28;20446;-68
2022/02/16 11:54:46;;;;;;;0.70;0.50;;;16.30;99.90;;;;;;5030685;28;20446;-68
2022/02/16 11:57:30;;;;;;;0.70;0.53;;;16.30;99.90;;;;;;5016149;28;20454;-69
2022/02/16 12:00:08;;;;;;;0.70;0.50;;;16.30;99.90;;;;;;5015769;28;20445;-68
2022/02/16 12:02:54;;;;;;;0.70;0.50;;;16.20;99.90;;;;;;5032100;28;20428;-68
2022/02/16 12:05:53;;;;;;;0.70;0.50;;;16.20;99.90;;;;;;5034420;28;20508;-68
2022/02/16 12:08:19;;;;;;;0.70;0.50;;;16.20;99.90;;;;;;5033364;28;20430;-68
2022/02/16 12:10:47;;;;;;;0.70;0.50;;;16.20;99.90;;;;;;5034695;28;20483;-68
2022/02/16 12:13:13;;;;;;;0.70;0.50;;;16.20;99.90;;;;;;5031932;28;20176;-67
2022/02/16 12:15:39;;;;;;;0.70;0.50;;;16.30;99.90;;;;;;5030614;28;20513;-68
2022/02/16 12:18:10;;;;;;;0.80;0.70;;;16.30;99.90;;;;;;5032771;28;20893;-67
2022/02/16 12:20:36;;;;;;;0.90;0.60;;;16.40;99.90;;;;;;5035799;28;20195;-68
2022/02/16 12:23:04;;;;;;;0.70;0.50;;;16.30;99.90;;;;;;5044213;28;20905;-69
2022/02/16 12:25:29;;;;;;;0.70;0.50;;;16.40;99.90;;;;;;5053411;28;20167;-69
2022/02/16 12:28:04;;;;;;;0.70;0.50;;;16.40;99.90;;;;;;5054607;28;20467;-69
2022/02/16 12:30:41;;;;;;;0.70;0.50;;;16.20;99.90;;;;;;5019126;28;20195;-69
2022/02/16 12:33:24;;;;;;;0.70;0.50;;;16.20;99.90;;;;;;5034646;28;20424;-69
2022/02/16 12:35:50;;;;;;;0.70;0.50;;;16.20;99.90;;;;;;5038785;28;20510;-69
2022/02/16 12:38:27;;;;;;;0.70;0.50;;;16.30;99.90;;;;;;5030763;28;20457;-68
2022/02/16 12:40:52;;;;;;;1.53;0.80;;;16.30;99.90;;;;;;5043087;28;20961;-68
2022/02/16 12:43:19;;;;;;;0.70;0.50;;;16.40;99.90;;;;;;5053634;28;20449;-68
2022/02/16 12:45:46;;;;;;;0.70;0.50;;;16.40;99.90;;;;;;5051967;28;20254;-69
2022/02/16 12:48:13;;;;;;;0.80;0.60;;;16.40;99.90;;;;;;5049546;28;20498;-69
2022/02/16 12:50:39;;;;;;;0.70;0.50;;;16.40;99.90;;;;;;5043068;28;20438;-68